sensor_id;sensor_type;location;lat;lon;timestamp;temperature;humidity
66568;DHT22;53422;49.296;6.900;2022-10-04T00:00:12;10.70;99.90
66568;DHT22;53422;49.296;6.900;2022-10-04T00:02:47;10.70;99.90
66568;DHT22;53422;49.296;6.900;2022-10-04T00:05:17;10.70;99.90
66568;DHT22;53422;49.296;6.900;2022-10-04T00:07:48;10.70;99.90
66568;DHT22;53422;49.296;6.900;2022-10-04T00:10:31;10.60;99.90
66568;DHT22;53422;49.296;6.900;2022-10-04T00:15:27;10.60;99.90
66568;DHT22;53422;49.296;6.900;2022-10-04T00:18:31;10.60;99.90
66568;DHT22;53422;49.296;6.900;2022-10-04T00:21:03;10.60;99.90
66568;DHT22;53422;49.296;6.900;2022-10-04T00:23:42;10.60;99.90
66568;DHT22;53422;49.296;6.900;2022-10-04T00:28:56;10.50;99.90
66568;DHT22;53422;49.296;6.900;2022-10-04T00:31:26;10.50;99.90
66568;DHT22;53422;49.296;6.900;2022-10-04T00:41:36;10.50;99.90
66568;DHT22;53422;49.296;6.900;2022-10-04T00:44:07;10.50;99.90
66568;DHT22;53422;49.296;6.900;2022-10-04T00:46:35;10.50;99.90
66568;DHT22;53422;49.296;6.900;2022-10-04T00:49:06;10.40;99.90
66568;DHT22;53422;49.296;6.900;2022-10-04T00:51:40;10.50;99.90
66568;DHT22;53422;49.296;6.900;2022-10-04T00:54:13;10.40;99.90
66568;DHT22;53422;49.296;6.900;2022-10-04T00:56:54;10.40;99.90
66568;DHT22;53422;49.296;6.900;2022-10-04T01:02:00;10.40;99.90
66568;DHT22;53422;49.296;6.900;2022-10-04T01:07:02;10.40;99.90
66568;DHT22;53422;49.296;6.900;2022-10-04T01:09:32;10.30;99.90
66568;DHT22;53422;49.296;6.900;2022-10-04T01:12:48;10.30;99.90
66568;DHT22;53422;49.296;6.900;2022-10-04T01:15:23;10.30;99.90
66568;DHT22;53422;49.296;6.900;2022-10-04T01:20:37;10.40;99.90
66568;DHT22;53422;49.296;6.900;2022-10-04T01:23:03;10.40;99.90
66568;DHT22;53422;49.296;6.900;2022-10-04T01:25:43;10.40;99.90
66568;DHT22;53422;49.296;6.900;2022-10-04T01:28:09;10.40;99.90
66568;DHT22;53422;49.296;6.900;2022-10-04T01:30:35;10.40;99.90
66568;DHT22;53422;49.296;6.900;2022-10-04T01:33:00;10.40;99.90
66568;DHT22;53422;49.296;6.900;2022-10-04T01:35:27;10.40;99.90
66568;DHT22;53422;49.296;6.900;2022-10-04T01:37:53;10.30;99.90
66568;DHT22;53422;49.296;6.900;2022-10-04T01:40:20;10.30;99.90
66568;DHT22;53422;49.296;6.900;2022-10-04T01:42:55;10.30;99.90
66568;DHT22;53422;49.296;6.900;2022-10-04T01:45:36;10.30;99.90
66568;DHT22;53422;49.296;6.900;2022-10-04T01:48:08;10.30;99.90
66568;DHT22;53422;49.296;6.900;2022-10-04T01:50:56;10.30;99.90
66568;DHT22;53422;49.296;6.900;2022-10-04T01:53:29;10.30;99.90
66568;DHT22;53422;49.296;6.900;2022-10-04T01:56:04;10.30;99.90
66568;DHT22;53422;49.296;6.900;2022-10-04T01:58:38;10.30;99.90
66568;DHT22;53422;49.296;6.900;2022-10-04T02:01:13;10.30;99.90
66568;DHT22;53422;49.296;6.900;2022-10-04T02:03:51;10.30;99.90
66568;DHT22;53422;49.296;6.900;2022-10-04T02:06:20;10.20;99.90
66568;DHT22;53422;49.296;6.900;2022-10-04T02:08:49;10.30;99.90
66568;DHT22;53422;49.296;6.900;2022-10-04T02:11:19;10.30;99.90
66568;DHT22;53422;49.296;6.900;2022-10-04T02:13:48;10.20;99.90
66568;DHT22;53422;49.296;6.900;2022-10-04T02:16:15;10.20;99.90
66568;DHT22;53422;49.296;6.900;2022-10-04T02:18:42;10.20;99.90
66568;DHT22;53422;49.296;6.900;2022-10-04T02:21:09;10.20;99.90
66568;DHT22;53422;49.296;6.900;2022-10-04T02:23:36;10.20;99.90
66568;DHT22;53422;49.296;6.900;2022-10-04T02:26:07;10.20;99.90
66568;DHT22;53422;49.296;6.900;2022-10-04T02:28:33;10.20;99.90
66568;DHT22;53422;49.296;6.900;2022-10-04T02:30:59;10.20;99.90
66568;DHT22;53422;49.296;6.900;2022-10-04T02:33:46;10.20;99.90
66568;DHT22;53422;49.296;6.900;2022-10-04T02:36:13;10.20;99.90
66568;DHT22;53422;49.296;6.900;2022-10-04T02:41:25;10.10;99.90
66568;DHT22;53422;49.296;6.900;2022-10-04T02:46:24;10.10;99.90
66568;DHT22;53422;49.296;6.900;2022-10-04T02:48:55;10.10;99.90
66568;DHT22;53422;49.296;6.900;2022-10-04T02:51:32;10.10;99.90
66568;DHT22;53422;49.296;6.900;2022-10-04T02:56:36;10.10;99.90
66568;DHT22;53422;49.296;6.900;2022-10-04T02:59:03;10.00;99.90
66568;DHT22;53422;49.296;6.900;2022-10-04T03:01:44;10.00;99.90
66568;DHT22;53422;49.296;6.900;2022-10-04T03:04:13;10.00;99.90
66568;DHT22;53422;49.296;6.900;2022-10-04T03:06:40;10.00;99.90
66568;DHT22;53422;49.296;6.900;2022-10-04T03:09:06;10.00;99.90
66568;DHT22;53422;49.296;6.900;2022-10-04T03:11:37;10.00;99.90
66568;DHT22;53422;49.296;6.900;2022-10-04T03:14:07;10.00;99.90
66568;DHT22;53422;49.296;6.900;2022-10-04T03:16:39;10.00;99.90
66568;DHT22;53422;49.296;6.900;2022-10-04T03:19:07;10.00;99.90
66568;DHT22;53422;49.296;6.900;2022-10-04T03:21:34;10.00;99.90
66568;DHT22;53422;49.296;6.900;2022-10-04T03:24:03;9.90;99.90
66568;DHT22;53422;49.296;6.900;2022-10-04T03:26:54;10.00;99.90
66568;DHT22;53422;49.296;6.900;2022-10-04T03:29:22;9.90;99.90
66568;DHT22;53422;49.296;6.900;2022-10-04T03:31:49;9.90;99.90
66568;DHT22;53422;49.296;6.900;2022-10-04T03:34:33;9.90;99.90
66568;DHT22;53422;49.296;6.900;2022-10-04T03:37:00;9.90;99.90
66568;DHT22;53422;49.296;6.900;2022-10-04T03:39:47;9.90;99.90
66568;DHT22;53422;49.296;6.900;2022-10-04T03:42:16;9.90;99.90
66568;DHT22;53422;49.296;6.900;2022-10-04T03:44:44;9.90;99.90
66568;DHT22;53422;49.296;6.900;2022-10-04T03:47:26;9.90;99.90
66568;DHT22;53422;49.296;6.900;2022-10-04T03:49:54;9.90;99.90
66568;DHT22;53422;49.296;6.900;2022-10-04T03:52:29;9.90;99.90
66568;DHT22;53422;49.296;6.900;2022-10-04T03:54:59;9.90;99.90
66568;DHT22;53422;49.296;6.900;2022-10-04T03:57:26;9.90;99.90
66568;DHT22;53422;49.296;6.900;2022-10-04T03:59:52;9.90;99.90
66568;DHT22;53422;49.296;6.900;2022-10-04T04:05:40;9.80;99.90
66568;DHT22;53422;49.296;6.900;2022-10-04T04:08:53;9.90;99.90
66568;DHT22;53422;49.296;6.900;2022-10-04T04:11:02;9.80;99.90
66568;DHT22;53422;49.296;6.900;2022-10-04T04:13:42;9.80;99.90
66568;DHT22;53422;49.296;6.900;2022-10-04T04:16:10;9.80;99.90
66568;DHT22;53422;49.296;6.900;2022-10-04T04:18:38;9.80;99.90
66568;DHT22;53422;49.296;6.900;2022-10-04T04:21:06;9.80;99.90
66568;DHT22;53422;49.296;6.900;2022-10-04T04:23:41;9.80;99.90
66568;DHT22;53422;49.296;6.900;2022-10-04T04:26:34;9.80;99.90
66568;DHT22;53422;49.296;6.900;2022-10-04T04:29:06;9.80;99.90
66568;DHT22;53422;49.296;6.900;2022-10-04T04:34:26;9.80;99.90
66568;DHT22;53422;49.296;6.900;2022-10-04T04:37:03;9.70;99.90
66568;DHT22;53422;49.296;6.900;2022-10-04T04:39:30;9.80;99.90
66568;DHT22;53422;49.296;6.900;2022-10-04T04:42:04;9.80;99.90
66568;DHT22;53422;49.296;6.900;2022-10-04T04:44:30;9.80;99.90
66568;DHT22;53422;49.296;6.900;2022-10-04T04:46:57;9.80;99.90
66568;DHT22;53422;49.296;6.900;2022-10-04T04:49:26;9.80;99.90
66568;DHT22;53422;49.296;6.900;2022-10-04T04:51:54;9.70;99.90
66568;DHT22;53422;49.296;6.900;2022-10-04T04:54:24;9.70;99.90
66568;DHT22;53422;49.296;6.900;2022-10-04T04:56:52;9.70;99.90
66568;DHT22;53422;49.296;6.900;2022-10-04T04:59:20;9.70;99.90
66568;DHT22;53422;49.296;6.900;2022-10-04T05:01:46;9.70;99.90
66568;DHT22;53422;49.296;6.900;2022-10-04T05:06:43;9.70;99.90
66568;DHT22;53422;49.296;6.900;2022-10-04T05:09:36;9.70;99.90
66568;DHT22;53422;49.296;6.900;2022-10-04T05:12:15;9.70;99.90
66568;DHT22;53422;49.296;6.900;2022-10-04T05:14:53;9.70;99.90
66568;DHT22;53422;49.296;6.900;2022-10-04T05:17:24;9.70;99.90
66568;DHT22;53422;49.296;6.900;2022-10-04T05:19:52;9.70;99.90
66568;DHT22;53422;49.296;6.900;2022-10-04T05:22:22;9.70;99.90
66568;DHT22;53422;49.296;6.900;2022-10-04T05:24:53;9.70;99.90
66568;DHT22;53422;49.296;6.900;2022-10-04T05:27:35;9.70;99.90
66568;DHT22;53422;49.296;6.900;2022-10-04T05:41:08;9.60;99.90
66568;DHT22;53422;49.296;6.900;2022-10-04T05:43:37;9.60;99.90
66568;DHT22;53422;49.296;6.900;2022-10-04T05:46:32;9.60;99.90
66568;DHT22;53422;49.296;6.900;2022-10-04T05:49:02;9.60;99.90
66568;DHT22;53422;49.296;6.900;2022-10-04T05:51:34;9.60;99.90
66568;DHT22;53422;49.296;6.900;2022-10-04T05:54:11;9.60;99.90
66568;DHT22;53422;49.296;6.900;2022-10-04T06:03:00;9.50;99.90
66568;DHT22;53422;49.296;6.900;2022-10-04T06:05:50;9.50;99.90
66568;DHT22;53422;49.296;6.900;2022-10-04T06:21:17;9.50;99.90
66568;DHT22;53422;49.296;6.900;2022-10-04T06:23:53;9.50;99.90
66568;DHT22;53422;49.296;6.900;2022-10-04T06:26:25;9.50;99.90
66568;DHT22;53422;49.296;6.900;2022-10-04T06:28:56;9.50;99.90
66568;DHT22;53422;49.296;6.900;2022-10-04T06:45:56;9.60;99.90
66568;DHT22;53422;49.296;6.900;2022-10-04T07:02:48;9.70;99.90
66568;DHT22;53422;49.296;6.900;2022-10-04T07:05:57;9.70;99.90
66568;DHT22;53422;49.296;6.900;2022-10-04T07:08:13;9.70;99.90
66568;DHT22;53422;49.296;6.900;2022-10-04T07:10:57;9.70;99.90
66568;DHT22;53422;49.296;6.900;2022-10-04T07:16:02;9.70;99.90
66568;DHT22;53422;49.296;6.900;2022-10-04T07:18:38;9.70;99.90
66568;DHT22;53422;49.296;6.900;2022-10-04T07:21:10;9.80;99.90
66568;DHT22;53422;49.296;6.900;2022-10-04T07:24:03;9.80;99.90
66568;DHT22;53422;49.296;6.900;2022-10-04T07:26:37;9.80;99.90
66568;DHT22;53422;49.296;6.900;2022-10-04T07:29:32;9.80;99.90
66568;DHT22;53422;49.296;6.900;2022-10-04T07:34:53;9.90;99.90
66568;DHT22;53422;49.296;6.900;2022-10-04T07:37:20;9.90;99.90
66568;DHT22;53422;49.296;6.900;2022-10-04T07:39:58;10.00;99.90
66568;DHT22;53422;49.296;6.900;2022-10-04T07:42:31;10.00;99.90
66568;DHT22;53422;49.296;6.900;2022-10-04T07:47:34;10.10;99.90
66568;DHT22;53422;49.296;6.900;2022-10-04T07:50:27;10.20;99.90
66568;DHT22;53422;49.296;6.900;2022-10-04T07:53:13;10.20;99.90
66568;DHT22;53422;49.296;6.900;2022-10-04T07:56:00;10.30;99.90
66568;DHT22;53422;49.296;6.900;2022-10-04T08:01:38;10.40;99.90
66568;DHT22;53422;49.296;6.900;2022-10-04T08:06:52;10.50;99.90
66568;DHT22;53422;49.296;6.900;2022-10-04T08:12:28;10.60;99.90
66568;DHT22;53422;49.296;6.900;2022-10-04T08:14:55;10.70;99.90
66568;DHT22;53422;49.296;6.900;2022-10-04T08:20:38;10.80;99.90
66568;DHT22;53422;49.296;6.900;2022-10-04T08:24:09;10.90;99.90
66568;DHT22;53422;49.296;6.900;2022-10-04T08:26:27;10.90;99.90
66568;DHT22;53422;49.296;6.900;2022-10-04T08:54:49;11.60;99.90
66568;DHT22;53422;49.296;6.900;2022-10-04T09:05:52;11.90;99.90
66568;DHT22;53422;49.296;6.900;2022-10-04T09:08:39;12.00;99.90
66568;DHT22;53422;49.296;6.900;2022-10-04T09:14:34;12.20;99.90
66568;DHT22;53422;49.296;6.900;2022-10-04T09:17:28;12.30;99.90
66568;DHT22;53422;49.296;6.900;2022-10-04T09:25:45;12.70;99.90
66568;DHT22;53422;49.296;6.900;2022-10-04T09:50:39;13.10;99.90
66568;DHT22;53422;49.296;6.900;2022-10-04T09:53:31;13.30;99.90
66568;DHT22;53422;49.296;6.900;2022-10-04T10:04:36;13.10;99.90
66568;DHT22;53422;49.296;6.900;2022-10-04T10:10:22;13.10;99.90
66568;DHT22;53422;49.296;6.900;2022-10-04T10:28:22;12.90;99.90
66568;DHT22;53422;49.296;6.900;2022-10-04T10:44:56;12.70;99.90
66568;DHT22;53422;49.296;6.900;2022-10-04T10:53:22;12.60;99.90
66568;DHT22;53422;49.296;6.900;2022-10-04T10:58:53;12.60;99.90
66568;DHT22;53422;49.296;6.900;2022-10-04T11:07:31;12.70;99.90
66568;DHT22;53422;49.296;6.900;2022-10-04T11:10:21;12.60;99.90
66568;DHT22;53422;49.296;6.900;2022-10-04T11:13:09;12.70;99.90
66568;DHT22;53422;49.296;6.900;2022-10-04T11:18:48;12.60;99.90
66568;DHT22;53422;49.296;6.900;2022-10-04T11:27:08;12.50;99.90
66568;DHT22;53422;49.296;6.900;2022-10-04T11:38:04;12.50;99.90
66568;DHT22;53422;49.296;6.900;2022-10-04T11:46:38;12.40;99.90
66568;DHT22;53422;49.296;6.900;2022-10-04T11:58:11;12.50;99.90
66568;DHT22;53422;49.296;6.900;2022-10-04T12:03:38;12.50;99.90
66568;DHT22;53422;49.296;6.900;2022-10-04T12:09:34;12.70;99.90
66568;DHT22;53422;49.296;6.900;2022-10-04T12:12:21;12.70;99.90
66568;DHT22;53422;49.296;6.900;2022-10-04T12:20:57;12.80;99.90
66568;DHT22;53422;49.296;6.900;2022-10-04T12:24:06;12.90;99.90
66568;DHT22;53422;49.296;6.900;2022-10-04T12:52:23;14.00;99.90
66568;DHT22;53422;49.296;6.900;2022-10-04T12:54:55;14.00;99.90
66568;DHT22;53422;49.296;6.900;2022-10-04T13:14:33;14.60;99.90
66568;DHT22;53422;49.296;6.900;2022-10-04T13:22:58;15.00;99.90
66568;DHT22;53422;49.296;6.900;2022-10-04T13:25:40;15.10;99.90
66568;DHT22;53422;49.296;6.900;2022-10-04T13:28:22;15.10;99.90
66568;DHT22;53422;49.296;6.900;2022-10-04T13:33:53;15.20;99.90
66568;DHT22;53422;49.296;6.900;2022-10-04T13:52:15;15.70;99.90
66568;DHT22;53422;49.296;6.900;2022-10-04T13:55:25;15.70;99.90
66568;DHT22;53422;49.296;6.900;2022-10-04T14:01:41;15.90;99.90
66568;DHT22;53422;49.296;6.900;2022-10-04T14:07:35;15.90;99.90
66568;DHT22;53422;49.296;6.900;2022-10-04T14:13:09;16.00;99.90
66568;DHT22;53422;49.296;6.900;2022-10-04T14:16:03;16.10;99.90
66568;DHT22;53422;49.296;6.900;2022-10-04T15:00:21;16.20;99.90
66568;DHT22;53422;49.296;6.900;2022-10-04T15:11:15;16.10;99.90
66568;DHT22;53422;49.296;6.900;2022-10-04T15:13:51;16.10;99.90
66568;DHT22;53422;49.296;6.900;2022-10-04T15:16:53;16.00;99.90
66568;DHT22;53422;49.296;6.900;2022-10-04T15:24:48;15.90;99.90
66568;DHT22;53422;49.296;6.900;2022-10-04T15:38:29;15.70;99.90
66568;DHT22;53422;49.296;6.900;2022-10-04T15:49:49;15.50;99.90
66568;DHT22;53422;49.296;6.900;2022-10-04T15:55:09;15.40;99.90
66568;DHT22;53422;49.296;6.900;2022-10-04T16:14:28;15.00;99.90
66568;DHT22;53422;49.296;6.900;2022-10-04T16:22:37;14.90;99.90
66568;DHT22;53422;49.296;6.900;2022-10-04T16:35:59;14.60;99.90
66568;DHT22;53422;49.296;6.900;2022-10-04T16:38:27;14.60;99.90
66568;DHT22;53422;49.296;6.900;2022-10-04T16:41:11;14.50;99.90
66568;DHT22;53422;49.296;6.900;2022-10-04T16:43:50;14.40;99.90
66568;DHT22;53422;49.296;6.900;2022-10-04T16:46:18;14.40;99.90
66568;DHT22;53422;49.296;6.900;2022-10-04T16:48:59;14.40;99.90
66568;DHT22;53422;49.296;6.900;2022-10-04T16:57:22;14.20;99.90
66568;DHT22;53422;49.296;6.900;2022-10-04T16:59:59;14.20;99.90
66568;DHT22;53422;49.296;6.900;2022-10-04T17:10:57;14.00;99.90
66568;DHT22;53422;49.296;6.900;2022-10-04T17:13:42;13.90;99.90
66568;DHT22;53422;49.296;6.900;2022-10-04T17:16:20;13.80;99.90
66568;DHT22;53422;49.296;6.900;2022-10-04T17:22:18;13.70;99.90
66568;DHT22;53422;49.296;6.900;2022-10-04T17:25:19;13.60;99.90
66568;DHT22;53422;49.296;6.900;2022-10-04T17:28:43;13.60;99.90
66568;DHT22;53422;49.296;6.900;2022-10-04T17:31:00;13.50;99.90
66568;DHT22;53422;49.296;6.900;2022-10-04T17:42:50;13.20;99.90
66568;DHT22;53422;49.296;6.900;2022-10-04T17:48:25;13.10;99.90
66568;DHT22;53422;49.296;6.900;2022-10-04T17:54:15;13.00;99.90
66568;DHT22;53422;49.296;6.900;2022-10-04T17:59:37;12.90;99.90
66568;DHT22;53422;49.296;6.900;2022-10-04T18:02:21;12.90;99.90
66568;DHT22;53422;49.296;6.900;2022-10-04T18:05:13;12.80;99.90
66568;DHT22;53422;49.296;6.900;2022-10-04T18:07:47;12.80;99.90
66568;DHT22;53422;49.296;6.900;2022-10-04T18:10:17;12.70;99.90
66568;DHT22;53422;49.296;6.900;2022-10-04T18:12:50;12.70;99.90
66568;DHT22;53422;49.296;6.900;2022-10-04T18:15:47;12.70;99.90
66568;DHT22;53422;49.296;6.900;2022-10-04T18:18:23;12.70;99.90
66568;DHT22;53422;49.296;6.900;2022-10-04T18:21:04;12.60;99.90
66568;DHT22;53422;49.296;6.900;2022-10-04T18:23:36;12.60;99.90
66568;DHT22;53422;49.296;6.900;2022-10-04T18:26:15;12.60;99.90
66568;DHT22;53422;49.296;6.900;2022-10-04T18:28:45;12.50;99.90
66568;DHT22;53422;49.296;6.900;2022-10-04T18:34:27;12.40;99.90
66568;DHT22;53422;49.296;6.900;2022-10-04T18:37:17;12.40;99.90
66568;DHT22;53422;49.296;6.900;2022-10-04T18:39:46;12.30;99.90
66568;DHT22;53422;49.296;6.900;2022-10-04T18:42:28;12.30;99.90
66568;DHT22;53422;49.296;6.900;2022-10-04T18:44:59;12.30;99.90
66568;DHT22;53422;49.296;6.900;2022-10-04T18:47:45;12.30;99.90
66568;DHT22;53422;49.296;6.900;2022-10-04T18:56:03;12.20;99.90
66568;DHT22;53422;49.296;6.900;2022-10-04T19:02:00;12.10;99.90
66568;DHT22;53422;49.296;6.900;2022-10-04T19:07:39;12.10;99.90
66568;DHT22;53422;49.296;6.900;2022-10-04T19:10:32;12.10;99.90
66568;DHT22;53422;49.296;6.900;2022-10-04T19:13:15;12.00;99.90
66568;DHT22;53422;49.296;6.900;2022-10-04T19:21:18;11.90;99.90
66568;DHT22;53422;49.296;6.900;2022-10-04T19:26:37;11.90;99.90
66568;DHT22;53422;49.296;6.900;2022-10-04T19:32:06;11.90;99.90
66568;DHT22;53422;49.296;6.900;2022-10-04T19:35:02;11.90;99.90
66568;DHT22;53422;49.296;6.900;2022-10-04T19:40:39;11.80;99.90
66568;DHT22;53422;49.296;6.900;2022-10-04T19:43:13;11.80;99.90
66568;DHT22;53422;49.296;6.900;2022-10-04T19:48:47;11.80;99.90
66568;DHT22;53422;49.296;6.900;2022-10-04T19:54:32;11.70;99.90
66568;DHT22;53422;49.296;6.900;2022-10-04T19:57:01;11.70;99.90
66568;DHT22;53422;49.296;6.900;2022-10-04T19:59:38;11.70;99.90
66568;DHT22;53422;49.296;6.900;2022-10-04T20:02:09;11.70;99.90
66568;DHT22;53422;49.296;6.900;2022-10-04T20:04:35;11.70;99.90
66568;DHT22;53422;49.296;6.900;2022-10-04T20:17:52;11.60;99.90
66568;DHT22;53422;49.296;6.900;2022-10-04T20:23:49;11.50;99.90
66568;DHT22;53422;49.296;6.900;2022-10-04T20:26:35;11.50;99.90
66568;DHT22;53422;49.296;6.900;2022-10-04T20:32:05;11.50;99.90
66568;DHT22;53422;49.296;6.900;2022-10-04T20:37:11;11.50;99.90
66568;DHT22;53422;49.296;6.900;2022-10-04T20:42:31;11.40;99.90
66568;DHT22;53422;49.296;6.900;2022-10-04T20:44:58;11.40;99.90
66568;DHT22;53422;49.296;6.900;2022-10-04T20:48:16;11.50;99.90
66568;DHT22;53422;49.296;6.900;2022-10-04T20:50:37;11.40;99.90
66568;DHT22;53422;49.296;6.900;2022-10-04T20:53:12;11.40;99.90
66568;DHT22;53422;49.296;6.900;2022-10-04T20:55:40;11.40;99.90
66568;DHT22;53422;49.296;6.900;2022-10-04T20:58:31;11.40;99.90
66568;DHT22;53422;49.296;6.900;2022-10-04T21:01:02;11.40;99.90
66568;DHT22;53422;49.296;6.900;2022-10-04T21:03:38;11.40;99.90
66568;DHT22;53422;49.296;6.900;2022-10-04T21:06:06;11.40;99.90
66568;DHT22;53422;49.296;6.900;2022-10-04T21:08:33;11.30;99.90
66568;DHT22;53422;49.296;6.900;2022-10-04T21:11:18;11.30;99.90
66568;DHT22;53422;49.296;6.900;2022-10-04T21:13:57;11.30;99.90
66568;DHT22;53422;49.296;6.900;2022-10-04T21:21:56;11.30;99.90
66568;DHT22;53422;49.296;6.900;2022-10-04T21:27:35;11.30;99.90
66568;DHT22;53422;49.296;6.900;2022-10-04T21:30:05;11.30;99.90
66568;DHT22;53422;49.296;6.900;2022-10-04T21:32:35;11.20;99.90
66568;DHT22;53422;49.296;6.900;2022-10-04T21:35:02;11.20;99.90
66568;DHT22;53422;49.296;6.900;2022-10-04T21:37:28;11.20;99.90
66568;DHT22;53422;49.296;6.900;2022-10-04T21:39:54;11.20;99.90
66568;DHT22;53422;49.296;6.900;2022-10-04T21:42:20;11.20;99.90
66568;DHT22;53422;49.296;6.900;2022-10-04T21:44:46;11.20;99.90
66568;DHT22;53422;49.296;6.900;2022-10-04T21:47:12;11.20;99.90
66568;DHT22;53422;49.296;6.900;2022-10-04T21:49:37;11.20;99.90
66568;DHT22;53422;49.296;6.900;2022-10-04T21:52:03;11.20;99.90
66568;DHT22;53422;49.296;6.900;2022-10-04T21:54:29;11.10;99.90
66568;DHT22;53422;49.296;6.900;2022-10-04T21:56:55;11.10;99.90
66568;DHT22;53422;49.296;6.900;2022-10-04T21:59:21;11.10;99.90
66568;DHT22;53422;49.296;6.900;2022-10-04T22:01:46;11.10;99.90
66568;DHT22;53422;49.296;6.900;2022-10-04T22:04:12;11.10;99.90
66568;DHT22;53422;49.296;6.900;2022-10-04T22:06:38;11.10;99.90
66568;DHT22;53422;49.296;6.900;2022-10-04T22:09:04;11.10;99.90
66568;DHT22;53422;49.296;6.900;2022-10-04T22:11:29;11.10;99.90
66568;DHT22;53422;49.296;6.900;2022-10-04T22:13:55;11.10;99.90
66568;DHT22;53422;49.296;6.900;2022-10-04T22:16:21;11.00;99.90
66568;DHT22;53422;49.296;6.900;2022-10-04T22:18:46;11.00;99.90
66568;DHT22;53422;49.296;6.900;2022-10-04T22:21:12;11.00;99.90
66568;DHT22;53422;49.296;6.900;2022-10-04T22:23:42;11.00;99.90
66568;DHT22;53422;49.296;6.900;2022-10-04T22:26:13;11.00;99.90
66568;DHT22;53422;49.296;6.900;2022-10-04T22:28:45;11.00;99.90
66568;DHT22;53422;49.296;6.900;2022-10-04T22:31:14;11.00;99.90
66568;DHT22;53422;49.296;6.900;2022-10-04T22:33:42;11.00;99.90
66568;DHT22;53422;49.296;6.900;2022-10-04T22:38:37;11.00;99.90
66568;DHT22;53422;49.296;6.900;2022-10-04T22:41:11;11.00;99.90
66568;DHT22;53422;49.296;6.900;2022-10-04T22:43:37;10.90;99.90
66568;DHT22;53422;49.296;6.900;2022-10-04T22:46:03;10.90;99.90
66568;DHT22;53422;49.296;6.900;2022-10-04T22:48:29;10.90;99.90
66568;DHT22;53422;49.296;6.900;2022-10-04T22:50:55;10.90;99.90
66568;DHT22;53422;49.296;6.900;2022-10-04T22:53:22;10.90;99.90
66568;DHT22;53422;49.296;6.900;2022-10-04T22:55:51;10.90;99.90
66568;DHT22;53422;49.296;6.900;2022-10-04T22:58:17;10.90;99.90
66568;DHT22;53422;49.296;6.900;2022-10-04T23:00:43;10.90;99.90
66568;DHT22;53422;49.296;6.900;2022-10-04T23:03:17;10.90;99.90
66568;DHT22;53422;49.296;6.900;2022-10-04T23:05:43;10.90;99.90
66568;DHT22;53422;49.296;6.900;2022-10-04T23:08:09;10.90;99.90
66568;DHT22;53422;49.296;6.900;2022-10-04T23:10:35;10.90;99.90
66568;DHT22;53422;49.296;6.900;2022-10-04T23:13:00;10.90;99.90
66568;DHT22;53422;49.296;6.900;2022-10-04T23:15:26;10.90;99.90
66568;DHT22;53422;49.296;6.900;2022-10-04T23:17:53;10.80;99.90
66568;DHT22;53422;49.296;6.900;2022-10-04T23:20:22;10.80;99.90
66568;DHT22;53422;49.296;6.900;2022-10-04T23:22:49;10.80;99.90
66568;DHT22;53422;49.296;6.900;2022-10-04T23:25:27;10.80;99.90
66568;DHT22;53422;49.296;6.900;2022-10-04T23:27:59;10.80;99.90
66568;DHT22;53422;49.296;6.900;2022-10-04T23:30:26;10.80;99.90
66568;DHT22;53422;49.296;6.900;2022-10-04T23:32:55;10.80;99.90
66568;DHT22;53422;49.296;6.900;2022-10-04T23:35:24;10.80;99.90
66568;DHT22;53422;49.296;6.900;2022-10-04T23:37:50;10.80;99.90
66568;DHT22;53422;49.296;6.900;2022-10-04T23:40:19;10.80;99.90
66568;DHT22;53422;49.296;6.900;2022-10-04T23:42:53;10.80;99.90
66568;DHT22;53422;49.296;6.900;2022-10-04T23:45:22;10.80;99.90
66568;DHT22;53422;49.296;6.900;2022-10-04T23:47:51;10.70;99.90
66568;DHT22;53422;49.296;6.900;2022-10-04T23:50:28;10.70;99.90
66568;DHT22;53422;49.296;6.900;2022-10-04T23:52:57;10.70;99.90
66568;DHT22;53422;49.296;6.900;2022-10-04T23:55:34;10.70;99.90
66568;DHT22;53422;49.296;6.900;2022-10-04T23:58:01;10.70;99.90
